createdAt,value
2023-04-01T00:01:00.260Z,100817.13
2023-04-01T00:02:07.010Z,100815.72
2023-04-01T00:03:12.558Z,100823.09
2023-04-01T00:04:20.031Z,100820.38
2023-04-01T00:05:26.862Z,100829.38
2023-04-01T00:06:33.638Z,100829.13
2023-04-01T00:07:39.001Z,100829.97
2023-04-01T00:08:47.574Z,100828.31
2023-04-01T00:09:54.388Z,100828.88
2023-04-01T00:11:00.000Z,100836.03
2023-04-01T00:12:07.193Z,100840.16
2023-04-01T00:13:13.330Z,100843.72
2023-04-01T00:14:20.081Z,100844.31
2023-04-01T00:15:25.474Z,100842.41
2023-04-01T00:16:32.210Z,100846.56
2023-04-01T00:17:38.117Z,100849.31
2023-04-01T00:18:44.961Z,100850.47
2023-04-01T00:19:50.537Z,100849.41
2023-04-01T00:20:57.578Z,100847.25
2023-04-01T00:22:04.564Z,100856.28
2023-04-01T00:23:09.971Z,100852.47
2023-04-01T00:24:18.453Z,100851.63
2023-04-01T00:25:24.045Z,100857.72
2023-04-01T00:26:30.796Z,100861.25
2023-04-01T00:27:36.247Z,100859.63
2023-04-01T00:28:43.032Z,100862.09
2023-04-01T00:29:48.980Z,100861.00
2023-04-01T00:30:55.756Z,100870.88
2023-04-01T00:32:01.379Z,100870.88
2023-04-01T00:33:08.448Z,100874.22
2023-04-01T00:34:13.814Z,100870.13
2023-04-01T00:35:20.949Z,100875.97
2023-04-01T00:36:26.423Z,100875.97
2023-04-01T00:37:33.372Z,100878.44
2023-04-01T00:38:39.075Z,100884.16
2023-04-01T00:39:47.551Z,100879.53
2023-04-01T00:40:53.698Z,100875.72
2023-04-01T00:42:00.675Z,100876.53
2023-04-01T00:43:06.998Z,100879.00
2023-04-01T00:44:24.701Z,100879.63
2023-04-01T00:45:34.734Z,100880.66
2023-04-01T00:46:41.550Z,100878.78
2023-04-01T00:47:49.523Z,100883.41
2023-04-01T00:49:12.299Z,100885.91
2023-04-01T00:50:17.838Z,100890.88
2023-04-01T00:51:26.782Z,100887.66
2023-04-01T00:52:32.224Z,100892.06
2023-04-01T00:53:41.273Z,100890.97
2023-04-01T00:54:51.023Z,100897.09
2023-04-01T00:56:01.118Z,100891.34
2023-04-01T00:57:09.192Z,100900.13
2023-04-01T00:58:19.851Z,100897.16
2023-04-01T00:59:29.028Z,100904.06
2023-04-01T01:00:35.780Z,100901.06
2023-04-01T01:01:41.470Z,100899.41
2023-04-01T01:02:57.884Z,100901.56
2023-04-01T01:04:04.729Z,100905.97
2023-04-01T01:05:12.446Z,100902.63
2023-04-01T01:06:30.562Z,100902.16
2023-04-01T01:07:42.145Z,100907.63
2023-04-01T01:09:13.872Z,100908.19
2023-04-01T01:10:23.039Z,100909.00
2023-04-01T01:11:40.904Z,100911.75
2023-04-01T01:12:51.423Z,100908.19
2023-04-01T01:14:00.865Z,100911.53
2023-04-01T01:15:13.473Z,100914.84
2023-04-01T01:16:23.577Z,100917.31
2023-04-01T01:17:38.786Z,100919.22
2023-04-01T01:18:47.568Z,100923.63
2023-04-01T01:20:15.650Z,100917.94
2023-04-01T01:21:52.807Z,100922.88
2023-04-01T01:23:18.579Z,100922.88
2023-04-01T01:24:58.327Z,100922.97
2023-04-01T01:26:17.789Z,100926.53
2023-04-01T01:27:25.361Z,100929.28
2023-04-01T01:28:39.575Z,100935.00
2023-04-01T01:29:59.122Z,100938.56
2023-04-01T01:31:10.907Z,100936.41
2023-04-01T01:32:27.391Z,100935.31
2023-04-01T01:33:53.628Z,100934.28
2023-04-01T01:35:11.218Z,100930.72
2023-04-01T01:36:19.030Z,100929.63
2023-04-01T01:37:26.893Z,100940.31
2023-04-01T01:38:36.960Z,100939.50
2023-04-01T01:39:43.592Z,100941.41
2023-04-01T01:40:54.301Z,100941.97
2023-04-01T01:42:00.900Z,100941.97
2023-04-01T01:43:10.950Z,100938.16
2023-04-01T01:44:19.607Z,100939.84
2023-04-01T01:45:28.581Z,100945.06
2023-04-01T01:46:35.022Z,100940.97
2023-04-01T01:47:42.318Z,100945.97
2023-04-01T01:48:48.497Z,100940.00
2023-04-01T01:49:56.665Z,100942.25
2023-04-01T01:51:03.894Z,100947.47
2023-04-01T01:52:10.533Z,100940.69
2023-04-01T01:53:16.566Z,100945.66
2023-04-01T01:54:23.249Z,100943.47
2023-04-01T01:55:32.461Z,100940.53
2023-04-01T01:56:39.736Z,100948.50
2023-04-01T01:57:46.516Z,100951.00
2023-04-01T01:58:56.903Z,100946.34
2023-04-01T02:00:06.011Z,100947.16
2023-04-01T02:01:16.558Z,100942.56
2023-04-01T02:02:21.992Z,100941.69
2023-04-01T02:03:29.882Z,100951.00
2023-04-01T02:04:35.400Z,100947.44
2023-04-01T02:05:45.024Z,100944.69
2023-04-01T02:06:56.306Z,100946.34
2023-04-01T02:08:07.030Z,100945.50
2023-04-01T02:09:13.869Z,100942.78
2023-04-01T02:10:20.612Z,100943.38
2023-04-01T02:11:31.483Z,100945.84
2023-04-01T02:12:37.902Z,100947.25
2023-04-01T02:13:48.025Z,100947.03
2023-04-01T02:14:56.501Z,100946.78
2023-04-01T02:16:07.372Z,100950.34
2023-04-01T02:17:14.198Z,100947.34
2023-04-01T02:18:21.976Z,100956.97
2023-04-01T02:19:29.982Z,100952.06
2023-04-01T02:20:36.872Z,100951.59
2023-04-01T02:21:44.120Z,100954.91
2023-04-01T02:22:53.895Z,100953.56
2023-04-01T02:24:00.787Z,100949.50
2023-04-01T02:25:10.660Z,100951.16
2023-04-01T02:26:16.441Z,100957.81
2023-04-01T02:27:23.317Z,100956.47
2023-04-01T02:28:28.862Z,100957.63
2023-04-01T02:29:36.158Z,100956.28
2023-04-01T02:30:43.329Z,100951.41
2023-04-01T02:31:50.112Z,100957.44
2023-04-01T02:32:55.454Z,100955.28
2023-04-01T02:34:02.580Z,100955.06
2023-04-01T02:35:09.228Z,100961.09
2023-04-01T02:36:20.415Z,100955.13
2023-04-01T02:37:25.787Z,100955.69
2023-04-01T02:38:34.191Z,100958.78
2023-04-01T02:39:39.484Z,100951.97
2023-04-01T02:40:52.206Z,100957.78
2023-04-01T02:41:57.526Z,100952.63
2023-04-01T02:43:04.177Z,100954.28
2023-04-01T02:44:10.141Z,100956.78
2023-04-01T02:45:18.329Z,100954.34
2023-04-01T02:46:25.001Z,100944.81
2023-04-01T02:47:30.385Z,100954.97
2023-04-01T02:48:37.100Z,100953.94
2023-04-01T02:49:42.405Z,100952.56
2023-04-01T02:50:49.055Z,100955.06
2023-04-01T02:51:54.489Z,100955.06
2023-04-01T02:53:01.143Z,100948.50
2023-04-01T02:54:08.357Z,100946.34
2023-04-01T02:55:15.204Z,100949.06
2023-04-01T02:56:22.162Z,100949.41
2023-04-01T02:57:27.676Z,100939.84
2023-04-01T02:58:34.477Z,100947.56
2023-04-01T02:59:39.754Z,100943.47
2023-04-01T03:00:46.390Z,100935.81
2023-04-01T03:01:51.646Z,100943.78
2023-04-01T03:02:58.890Z,100940.78
2023-04-01T03:04:04.344Z,100932.03
2023-04-01T03:05:11.774Z,100934.53
2023-04-01T03:06:18.432Z,100930.72
2023-04-01T03:07:25.046Z,100938.41
2023-04-01T03:08:30.332Z,100939.03
2023-04-01T03:09:38.638Z,100940.44
2023-04-01T03:10:43.877Z,100934.44
2023-04-01T03:11:50.509Z,100933.34
2023-04-01T03:12:56.858Z,100941.03
2023-04-01T03:14:03.541Z,100930.66
2023-04-01T03:15:10.444Z,100928.47
2023-04-01T03:16:18.303Z,100938.13
2023-04-01T03:17:23.706Z,100925.78
2023-04-01T03:18:30.498Z,100924.44
2023-04-01T03:19:35.848Z,100926.94
2023-04-01T03:20:42.493Z,100923.44
2023-04-01T03:21:47.905Z,100920.44
2023-04-01T03:22:54.618Z,100922.63
2023-04-01T03:24:00.103Z,100924.03
2023-04-01T03:25:10.069Z,100913.34
2023-04-01T03:26:15.887Z,100911.19
2023-04-01T03:27:22.683Z,100918.91
2023-04-01T03:28:28.002Z,100903.03
2023-04-01T03:29:34.751Z,100909.91
2023-04-01T03:30:40.322Z,100910.22
2023-04-01T03:31:47.068Z,100905.00
2023-04-01T03:32:52.567Z,100903.91
2023-04-01T03:33:59.302Z,100901.78
2023-04-01T03:35:04.708Z,100900.41
2023-04-01T03:36:14.066Z,100898.25
2023-04-01T03:37:20.776Z,100897.72
2023-04-01T03:38:26.129Z,100901.06
2023-04-01T03:39:32.872Z,100891.72
2023-04-01T03:40:40.819Z,100897.78
2023-04-01T03:41:47.516Z,100890.09
2023-04-01T03:42:53.178Z,100887.94
2023-04-01T03:43:59.871Z,100890.13
2023-04-01T03:45:05.400Z,100886.88
2023-04-01T03:46:12.235Z,100880.84
2023-04-01T03:47:17.594Z,100886.09
2023-04-01T03:48:24.552Z,100879.22
2023-04-01T03:49:29.949Z,100883.38
2023-04-01T03:50:36.592Z,100877.34
2023-04-01T03:51:42.286Z,100880.41
2023-04-01T03:52:48.967Z,100882.03
2023-04-01T03:53:54.328Z,100873.25
2023-04-01T03:55:01.056Z,100871.91
2023-04-01T03:56:10.782Z,100872.47
2023-04-01T03:57:17.598Z,100873.28
2023-04-01T03:58:22.967Z,100864.81
2023-04-01T03:59:29.731Z,100855.19
2023-04-01T04:00:35.170Z,100864.03
2023-04-01T04:01:42.048Z,100867.59
2023-04-01T04:02:47.709Z,100862.69
2023-04-01T04:03:54.910Z,100862.13
2023-04-01T04:05:00.316Z,100854.47
2023-04-01T04:06:07.055Z,100845.94
2023-04-01T04:07:12.412Z,100856.38
2023-04-01T04:08:19.177Z,100847.63
2023-04-01T04:09:24.565Z,100853.94
2023-04-01T04:10:31.751Z,100838.84
2023-04-01T04:11:38.831Z,100838.31
2023-04-01T04:12:46.445Z,100839.94
2023-04-01T04:13:52.093Z,100832.28
2023-04-01T04:14:58.749Z,100834.75
2023-04-01T04:16:04.151Z,100830.63
2023-04-01T04:17:14.395Z,100831.22
2023-04-01T04:18:19.965Z,100836.44
2023-04-01T04:19:29.449Z,100827.63
2023-04-01T04:20:34.704Z,100822.72
2023-04-01T04:21:41.414Z,100822.97
2023-04-01T04:22:46.680Z,100821.09
2023-04-01T04:23:53.310Z,100824.38
2023-04-01T04:24:58.617Z,100816.69
2023-04-01T04:26:06.485Z,100813.69
2023-04-01T04:27:14.830Z,100809.81
2023-04-01T04:28:20.099Z,100810.38
2023-04-01T04:29:27.016Z,100813.66
2023-04-01T04:30:33.726Z,100802.41
2023-04-01T04:31:39.054Z,100801.88
2023-04-01T04:32:45.778Z,100806.03
2023-04-01T04:33:51.182Z,100796.69
2023-04-01T04:34:57.778Z,100807.13
2023-04-01T04:36:03.505Z,100799.44
2023-04-01T04:37:10.182Z,100785.41
2023-04-01T04:38:15.459Z,100789.53
2023-04-01T04:39:22.081Z,100787.34
2023-04-01T04:40:27.338Z,100787.63
2023-04-01T04:41:35.873Z,100784.63
2023-04-01T04:42:44.177Z,100785.69
2023-04-01T04:43:55.259Z,100782.69
2023-04-01T04:45:01.946Z,100785.16
2023-04-01T04:46:10.748Z,100784.88
2023-04-01T04:47:16.106Z,100779.09
2023-04-01T04:48:23.003Z,100771.41
2023-04-01T04:49:28.334Z,100779.38
2023-04-01T04:50:37.307Z,100773.34
2023-04-01T04:51:42.586Z,100775.00
2023-04-01T04:52:49.168Z,100776.66
2023-04-01T04:53:55.856Z,100771.13
2023-04-01T04:55:01.126Z,100766.19
2023-04-01T04:56:07.817Z,100767.56
2023-04-01T04:57:13.144Z,100770.03
2023-04-01T04:58:21.591Z,100772.50
2023-04-01T04:59:26.914Z,100760.13
2023-04-01T05:00:33.556Z,100763.44
2023-04-01T05:01:38.943Z,100749.38
2023-04-01T05:02:45.770Z,100759.88
2023-04-01T05:03:52.417Z,100752.16
2023-04-01T05:04:57.729Z,100751.91
2023-04-01T05:06:04.293Z,100748.88
2023-04-01T05:07:09.628Z,100745.56
2023-04-01T05:08:16.266Z,100738.69
2023-04-01T05:09:21.633Z,100737.28
2023-04-01T05:10:28.292Z,100746.94
2023-04-01T05:11:33.589Z,100736.75
2023-04-01T05:12:41.296Z,100733.72
2023-04-01T05:13:50.147Z,100735.06
2023-04-01T05:14:56.864Z,100736.47
2023-04-01T05:16:03.512Z,100733.41
2023-04-01T05:17:10.880Z,100728.75
2023-04-01T05:18:17.886Z,100732.06
2023-04-01T05:19:24.652Z,100722.69
2023-04-01T05:20:30.063Z,100724.88
2023-04-01T05:21:40.129Z,100717.16
2023-04-01T05:22:45.570Z,100710.25
2023-04-01T05:23:52.293Z,100714.41
2023-04-01T05:24:57.688Z,100711.91
2023-04-01T05:26:06.874Z,100708.03
2023-04-01T05:27:12.245Z,100708.59
2023-04-01T05:28:20.053Z,100703.63
2023-04-01T05:29:27.398Z,100704.44
2023-04-01T05:30:34.108Z,100696.75
2023-04-01T05:31:39.469Z,100691.78
2023-04-01T05:32:46.345Z,100686.00
2023-04-01T05:33:53.246Z,100679.38
2023-04-01T05:34:58.779Z,100683.22
2023-04-01T05:36:12.003Z,100679.34
2023-04-01T05:37:17.604Z,100668.03
2023-04-01T05:38:24.303Z,100665.84
2023-04-01T05:39:29.845Z,100661.69
2023-04-01T05:40:37.394Z,100663.34
2023-04-01T05:41:44.645Z,100660.31
2023-04-01T05:42:50.033Z,100658.09
2023-04-01T05:43:56.791Z,100663.06
2023-04-01T05:45:03.921Z,100654.50
2023-04-01T05:46:10.979Z,100648.41
2023-04-01T05:47:16.493Z,100649.78
2023-04-01T05:48:23.189Z,100644.81
2023-04-01T05:49:29.025Z,100640.66
2023-04-01T05:50:36.000Z,100640.06
2023-04-01T05:51:41.366Z,100637.88
2023-04-01T05:52:48.869Z,100634.84
2023-04-01T05:53:54.280Z,100627.91
2023-04-01T05:55:02.302Z,100625.97
2023-04-01T05:56:08.214Z,100617.44
2023-04-01T05:57:15.028Z,100622.38
2023-04-01T05:58:20.403Z,100615.47
2023-04-01T05:59:33.713Z,100618.50
2023-04-01T06:00:43.841Z,100611.88
2023-04-01T06:01:50.637Z,100605.78
2023-04-01T06:02:56.078Z,100602.44
2023-04-01T06:04:03.100Z,100610.97
2023-04-01T06:05:17.416Z,100602.41
2023-04-01T06:06:29.443Z,100592.75
2023-04-01T06:07:34.862Z,100595.22
2023-04-01T06:08:41.560Z,100597.41
2023-04-01T06:09:47.554Z,100589.66
2023-04-01T06:11:11.459Z,100583.84
2023-04-01T06:12:33.554Z,100592.06
2023-04-01T06:13:52.789Z,100580.22
2023-04-01T06:15:10.152Z,100578.00
2023-04-01T06:16:23.523Z,100579.34
2023-04-01T06:17:39.254Z,100563.34
2023-04-01T06:19:02.084Z,100561.94
2023-04-01T06:20:12.603Z,100551.13
2023-04-01T06:21:38.792Z,100563.53
2023-04-01T06:22:56.414Z,100551.91
2023-04-01T06:24:09.833Z,100546.63
2023-04-01T06:25:36.958Z,100549.66
2023-04-01T06:26:46.599Z,100545.81
2023-04-01T06:28:04.508Z,100548.56
2023-04-01T06:29:34.135Z,100544.09
2023-04-01T06:30:45.558Z,100541.56
2023-04-01T06:32:09.005Z,100540.69
2023-04-01T06:33:31.387Z,100533.44
2023-04-01T06:35:05.961Z,100531.75
2023-04-01T06:36:37.491Z,100523.72
2023-04-01T06:37:59.645Z,100515.97
2023-04-01T06:39:30.967Z,100524.47
2023-04-01T06:41:00.700Z,100515.06
2023-04-01T06:42:34.596Z,100514.78
2023-04-01T06:43:50.949Z,100507.31
2023-04-01T06:45:03.645Z,100512.78
2023-04-01T06:46:14.121Z,100513.53
2023-04-01T06:47:32.335Z,100501.63
2023-04-01T06:49:03.787Z,100502.69
2023-04-01T06:50:15.441Z,100503.19
2023-04-01T06:51:29.783Z,100499.31
2023-04-01T06:52:41.197Z,100497.91
2023-04-01T06:53:52.838Z,100492.59
2023-04-01T06:55:05.813Z,100494.47
2023-04-01T06:56:13.504Z,100493.91
2023-04-01T06:57:26.758Z,100491.94
2023-04-01T06:58:40.816Z,100486.13
2023-04-01T06:59:47.783Z,100481.34
2023-04-01T07:00:55.512Z,100478.50
2023-04-01T07:02:04.861Z,100473.19
2023-04-01T07:03:20.842Z,100467.97
2023-04-01T07:04:31.344Z,100467.97
2023-04-01T07:05:38.601Z,100463.19
2023-04-01T07:06:49.110Z,100469.25
2023-04-01T07:07:58.431Z,100467.81
2023-04-01T07:09:06.361Z,100455.63
2023-04-01T07:10:17.811Z,100460.59
2023-04-01T07:11:29.464Z,100450.56
2023-04-01T07:12:43.721Z,100458.28
2023-04-01T07:13:54.268Z,100455.50
2023-04-01T07:15:00.630Z,100449.34
2023-04-01T07:16:16.869Z,100441.47
2023-04-01T07:17:25.550Z,100450.22
2023-04-01T07:18:39.745Z,100438.22
2023-04-01T07:19:50.349Z,100432.59
2023-04-01T07:20:56.096Z,100431.19
2023-04-01T07:22:06.521Z,100427.00
2023-04-01T07:23:20.396Z,100434.06
2023-04-01T07:24:27.921Z,100435.94
2023-04-01T07:25:36.261Z,100434.72
2023-04-01T07:26:42.862Z,100432.97
2023-04-01T07:27:48.610Z,100425.00
2023-04-01T07:28:56.677Z,100420.56
2023-04-01T07:30:02.820Z,100416.38
2023-04-01T07:31:20.410Z,100418.34
2023-04-01T07:32:33.288Z,100410.88
2023-04-01T07:33:46.430Z,100414.94
2023-04-01T07:35:10.790Z,100417.66
2023-04-01T07:36:22.706Z,100408.94
2023-04-01T07:37:33.879Z,100408.84
2023-04-01T07:38:45.335Z,100407.44
2023-04-01T07:39:57.019Z,100411.81
2023-04-01T07:41:10.043Z,100403.22
2023-04-01T07:42:23.865Z,100404.13
2023-04-01T07:43:47.081Z,100408.66
2023-04-01T07:45:01.587Z,100391.03
2023-04-01T07:46:14.946Z,100400.25
2023-04-01T07:47:29.681Z,100392.25
2023-04-01T07:48:40.231Z,100392.75
2023-04-01T07:49:57.914Z,100393.47
2023-04-01T07:51:05.707Z,100394.28
2023-04-01T07:52:19.705Z,100390.41
2023-04-01T07:53:30.420Z,100390.41
2023-04-01T07:54:43.779Z,100392.66
2023-04-01T07:55:52.721Z,100391.84
2023-04-01T07:57:02.958Z,100392.66
2023-04-01T07:58:11.683Z,100384.97
2023-04-01T07:59:24.601Z,100381.69
2023-04-01T08:00:33.869Z,100383.84
2023-04-01T08:01:44.115Z,100379.31
2023-04-01T08:03:20.653Z,100386.50
2023-04-01T08:04:33.703Z,100374.50
2023-04-01T08:06:51.501Z,100372.56
2023-04-01T08:08:08.683Z,100374.09
2023-04-01T08:09:24.262Z,100368.47
2023-04-01T08:10:38.866Z,100371.94
2023-04-01T08:12:01.065Z,100371.00
2023-04-01T08:13:13.444Z,100371.50
2023-04-01T08:14:25.078Z,100364.53
2023-04-01T08:15:33.454Z,100356.69
2023-04-01T08:16:44.554Z,100359.13
2023-04-01T08:18:00.682Z,100362.72
2023-04-01T08:19:14.685Z,100361.78
2023-04-01T08:20:29.762Z,100353.97
2023-04-01T08:21:39.926Z,100350.75
2023-04-01T08:22:48.791Z,100352.81
2023-04-01T08:23:57.705Z,100357.09
2023-04-01T08:25:05.808Z,100351.03
2023-04-01T08:26:15.628Z,100354.31
2023-04-01T08:27:25.344Z,100352.56
2023-04-01T08:28:37.119Z,100339.44
2023-04-01T08:29:46.183Z,100348.47
2023-04-01T08:30:54.728Z,100340.38
2023-04-01T08:32:04.682Z,100342.88
2023-04-01T08:33:14.743Z,100335.91
2023-04-01T08:34:24.971Z,100338.19
2023-04-01T08:35:37.649Z,100336.84
2023-04-01T08:36:49.810Z,100329.69
2023-04-01T08:37:58.878Z,100336.47
2023-04-01T08:39:11.888Z,100328.50
2023-04-01T08:40:38.995Z,100324.75
2023-04-01T08:42:29.180Z,100321.56
2023-04-01T08:43:57.222Z,100321.69
2023-04-01T08:45:15.597Z,100320.06
2023-04-01T08:46:50.499Z,100319.56
2023-04-01T08:48:27.457Z,100315.22
2023-04-01T08:49:48.841Z,100310.78
2023-04-01T08:51:14.515Z,100310.16
2023-04-01T08:52:45.709Z,100303.28
2023-04-01T08:54:13.919Z,100300.63
2023-04-01T08:55:58.492Z,100297.16
2023-04-01T08:57:11.487Z,100293.44
2023-04-01T08:59:02.208Z,100285.50
2023-04-01T09:00:19.946Z,100284.88
2023-04-01T09:01:38.409Z,100287.16
2023-04-01T09:04:19.512Z,100277.38
2023-04-01T09:06:01.287Z,100291.50
2023-04-01T09:07:18.608Z,100285.81
2023-04-01T09:08:35.185Z,100282.03
2023-04-01T09:10:09.092Z,100284.88
2023-04-01T09:11:25.874Z,100271.34
2023-04-01T09:12:55.410Z,100280.75
2023-04-01T09:14:30.508Z,100279.47
2023-04-01T09:16:15.042Z,100277.38
2023-04-01T09:17:53.385Z,100275.66
2023-04-01T09:21:47.347Z,100284.09
2023-04-01T09:23:24.116Z,100284.69
2023-04-01T09:25:06.242Z,100301.97
2023-04-01T09:26:33.296Z,100309.00
2023-04-01T09:27:41.467Z,100313.53
2023-04-01T09:28:52.529Z,100313.78
2023-04-01T09:30:30.933Z,100324.69
2023-04-01T09:32:11.106Z,100314.44
2023-04-01T09:33:59.397Z,100308.38
2023-04-01T09:35:13.072Z,100313.25
2023-04-01T09:36:29.732Z,100302.16
2023-04-01T09:37:53.730Z,100311.91
2023-04-01T09:39:02.953Z,100312.38
2023-04-01T09:40:22.775Z,100310.63
2023-04-01T09:41:35.804Z,100313.22
2023-04-01T09:42:48.946Z,100314.19
2023-04-01T09:44:06.203Z,100324.97
2023-04-01T09:45:17.480Z,100325.53
2023-04-01T09:46:31.479Z,100321.09
2023-04-01T09:47:50.644Z,100329.22
2023-04-01T09:49:26.390Z,100329.94
2023-04-01T09:50:38.106Z,100326.44
2023-04-01T09:51:50.160Z,100314.44
2023-04-01T09:53:03.641Z,100309.00
2023-04-01T09:54:23.839Z,100314.47
2023-04-01T09:55:56.381Z,100312.34
2023-04-01T09:57:29.202Z,100306.28
2023-04-01T09:58:57.552Z,100300.88
2023-04-01T10:00:42.673Z,100320.31
2023-04-01T10:43:52.265Z,100358.06
2023-04-01T10:47:29.446Z,100366.38
2023-04-01T10:49:20.033Z,100367.53
2023-04-01T10:51:18.989Z,100368.66
2023-04-01T10:53:00.491Z,100360.13
2023-04-01T10:54:35.131Z,100361.03
2023-04-01T10:56:10.302Z,100362.41
2023-04-01T10:57:35.961Z,100360.53
2023-04-01T10:59:09.883Z,100372.09
2023-04-01T11:00:34.099Z,100381.97
2023-04-01T11:02:15.238Z,100388.59
2023-04-01T11:03:49.467Z,100384.78
2023-04-01T11:05:25.331Z,100396.03
2023-04-01T11:22:29.558Z,100448.06
2023-04-01T11:24:04.909Z,100447.22
2023-04-01T11:25:30.736Z,100439.81
2023-04-01T11:26:51.400Z,100448.34
2023-04-01T11:28:13.669Z,100434.59
2023-04-01T11:43:01.657Z,100444.16
2023-04-01T11:44:26.136Z,100447.44
2023-04-01T11:45:43.131Z,100443.31
2023-04-01T11:46:57.782Z,100453.47
2023-04-01T11:48:28.513Z,100457.03
2023-04-01T11:49:58.551Z,100463.06
2023-04-01T11:51:22.452Z,100466.63
2023-04-01T11:52:55.264Z,100470.72
2023-04-01T11:54:09.045Z,100476.47
2023-04-01T11:55:28.920Z,100482.50
2023-04-01T11:56:54.846Z,100477.00
2023-04-01T11:58:14.470Z,100488.53
2023-04-01T11:59:56.480Z,100488.22
2023-04-01T12:01:31.956Z,100492.88
2023-04-01T12:02:49.305Z,100483.84
2023-04-01T12:04:24.265Z,100490.69
2023-04-01T12:05:40.857Z,100493.72
2023-04-01T12:06:53.291Z,100492.31
2023-04-01T12:08:19.149Z,100493.41
2023-04-01T12:09:33.110Z,100501.34
2023-04-01T12:10:44.235Z,100501.09
2023-04-01T12:11:57.766Z,100500.81
2023-04-01T12:13:11.445Z,100501.91
2023-04-01T12:14:21.229Z,100507.66
2023-04-01T12:15:33.770Z,100513.16
2023-04-01T12:16:58.914Z,100515.63
2023-04-01T12:18:13.972Z,100520.81
2023-04-01T12:19:27.620Z,100522.75
2023-04-01T12:20:48.873Z,100527.94
2023-04-01T12:22:06.703Z,100520.78
2023-04-01T12:23:22.503Z,100532.31
2023-04-01T12:24:54.240Z,100533.63
2023-04-01T20:17:06.130Z,100630.28
2023-04-01T20:18:20.279Z,100636.91
2023-04-01T20:19:39.583Z,100635.00
2023-04-01T20:20:46.867Z,100637.47
2023-04-01T20:21:53.700Z,100632.00
2023-04-01T20:23:29.520Z,100632.25
2023-04-01T20:24:39.772Z,100635.81
2023-04-01T20:25:50.855Z,100630.34
2023-04-01T20:27:03.485Z,100632.00
2023-04-01T20:28:16.276Z,100634.47
2023-04-01T20:29:41.481Z,100636.16
2023-04-01T20:31:12.908Z,100633.66
2023-04-01T20:32:45.941Z,100636.31
2023-04-01T20:34:25.364Z,100629.38
2023-04-01T20:35:40.483Z,100631.81
2023-04-01T20:36:55.053Z,100633.91
2023-04-01T20:38:16.735Z,100635.00
2023-04-01T20:39:59.099Z,100629.78
2023-04-01T20:41:09.784Z,100642.88
2023-04-01T20:42:39.821Z,100639.81
2023-04-01T20:44:01.845Z,100634.09
2023-04-01T20:45:33.332Z,100637.66
2023-04-01T20:46:47.966Z,100637.66
2023-04-01T20:48:06.776Z,100634.09
2023-04-01T20:49:46.627Z,100636.00
2023-04-01T20:50:54.623Z,100646.13
2023-04-01T20:52:09.897Z,100640.66
2023-04-01T20:53:19.134Z,100639.31
2023-04-01T20:54:36.540Z,100639.91
2023-04-01T20:56:15.216Z,100645.38
2023-04-01T20:57:25.565Z,100638.81
2023-04-01T20:58:35.395Z,100641.28
2023-04-01T20:59:54.210Z,100635.59
2023-04-01T21:01:06.423Z,100639.38
2023-04-01T21:02:24.807Z,100644.84
2023-04-01T21:03:39.623Z,100636.66
2023-04-01T21:05:05.042Z,100641.06
2023-04-01T21:06:36.336Z,100643.78
2023-04-01T21:07:45.334Z,100644.84
2023-04-01T21:09:12.865Z,100635.47
2023-04-01T21:10:44.681Z,100648.09
2023-04-01T21:11:56.706Z,100651.31
2023-04-01T21:13:13.033Z,100642.03
2023-04-01T21:15:10.925Z,100647.75
2023-04-01T21:16:28.780Z,100649.94
2023-04-01T21:17:47.259Z,100654.56
2023-04-01T21:19:08.877Z,100651.84
2023-04-01T21:20:27.905Z,100651.59
2023-04-01T21:22:09.854Z,100653.50
2023-04-01T21:23:42.924Z,100654.56
2023-04-01T21:25:00.041Z,100658.13
2023-04-01T21:26:16.859Z,100663.59
2023-04-01T21:27:34.565Z,100657.31
2023-04-01T21:28:51.993Z,100663.00
2023-04-01T21:30:03.385Z,100656.63
2023-04-01T21:31:20.862Z,100664.25
2023-04-01T21:32:46.283Z,100657.63
2023-04-01T21:34:38.269Z,100661.38
2023-04-01T21:35:53.326Z,100653.16
2023-04-01T21:37:11.657Z,100657.53
2023-04-01T21:38:37.032Z,100661.09
2023-04-01T21:40:00.882Z,100657.53
2023-04-01T21:41:28.631Z,100655.59
2023-04-01T21:42:46.177Z,100660.19
2023-04-01T21:44:21.225Z,100658.06
2023-04-01T21:45:37.223Z,100662.78
2023-04-01T21:47:06.650Z,100664.19
2023-04-01T21:48:39.597Z,100672.47
2023-04-01T21:49:55.302Z,100684.22
2023-04-01T21:51:30.433Z,100679.59
2023-04-01T21:52:56.832Z,100677.38
2023-04-01T21:54:25.786Z,100677.50
2023-04-01T22:14:07.105Z,100708.19
2023-04-01T22:15:21.518Z,100708.19
2023-04-01T22:16:35.165Z,100710.91
2023-04-01T22:17:47.790Z,100707.84
2023-04-01T22:19:01.947Z,100709.16
2023-04-01T22:20:21.947Z,100715.13
2023-04-01T22:21:31.855Z,100714.81
2023-04-01T22:22:50.884Z,100719.66
2023-04-01T22:24:06.172Z,100724.56
2023-04-01T22:25:15.909Z,100716.63
2023-04-01T22:26:29.271Z,100715.44
2023-04-01T22:27:43.245Z,100718.19
2023-04-01T22:28:57.464Z,100720.56
2023-04-01T22:30:22.265Z,100713.19
2023-04-01T22:31:32.808Z,100715.50
2023-04-01T22:32:44.943Z,100720.59
2023-04-01T22:33:57.725Z,100718.69
2023-04-01T22:35:11.051Z,100721.22
2023-04-01T22:36:26.765Z,100723.44
2023-04-01T22:37:36.751Z,100725.44
2023-04-01T22:38:58.455Z,100723.28
2023-04-01T22:40:21.209Z,100721.63
2023-04-01T22:41:35.450Z,100723.19
2023-04-01T22:42:48.416Z,100727.84
2023-04-01T22:43:59.952Z,100720.81
2023-04-01T22:45:23.485Z,100722.72
2023-04-01T22:46:46.373Z,100734.94
2023-04-01T22:47:59.253Z,100732.00
2023-04-01T22:49:12.373Z,100733.66
2023-04-01T22:50:21.173Z,100734.47
